East Nichols, New York
Current Conditions -  °F | °C
As of 7:53 PM on Saturday 20 Dec 2014 (Local Time) from KBGM Reporting Station
Overcast Overcast  
Wind Chill: 25°   Ceiling: 1700
Heat Index: 25°   Visibility: 10mi
Dew Point: 21°   Wind: 3mph
Humidity: 85%   Direction: 280°W
Pressure: 30.21"   Gusts: NA
Location:  42.0389°N, 76.3138°W
Report Text: KBGM 210053Z 28003KT 10SM OVC017 M04/M06 A3021 RMK AO2 SLP254 T10391061
Loading
Personal Weather Stations






























Interactive Weather Map New forecast layout! Learn more

10-Day Weather Forecast

Advertisements
Track Severe Weather on mobile